Time;durP1;ratioP1;P1;durP2;ratioP2;P2;SDS_P1;SDS_P2;PMS_P1;PMS_P2;Temp;Humidity;BMP_temperature;BMP_pressure;BME280_temperature;BME280_humidity;BME280_pressure;Samples;Min_cycle;Max_cycle;Signal;HPM_P1;HPM_P2
2021/05/31 00:01:03;;;;;;;5.10;4.32;;;;;;;21.05;48.93;102255.66;5025014;28;20051;-47
2021/05/31 00:03:29;;;;;;;6.70;4.20;;;;;;;21.05;48.99;102257.56;5007836;28;20537;-47
2021/05/31 00:05:54;;;;;;;9.65;4.70;;;;;;;21.03;48.79;102252.50;5026425;28;20033;-47
2021/05/31 00:08:20;;;;;;;6.75;3.97;;;;;;;21.02;48.69;102253.59;5024680;28;20049;-49
2021/05/31 00:10:45;;;;;;;5.57;4.20;;;;;;;21.02;48.58;102250.09;5025446;28;20034;-48
2021/05/31 00:13:10;;;;;;;10.27;4.53;;;;;;;21.00;48.82;102249.63;5024647;28;20147;-46
2021/05/31 00:15:36;;;;;;;6.30;4.05;;;;;;;20.99;48.74;102248.03;5024209;28;20045;-46
2021/05/31 00:18:01;;;;;;;8.80;4.53;;;;;;;20.97;48.75;102247.56;5024188;28;20044;-46
2021/05/31 00:20:27;;;;;;;6.85;4.72;;;;;;;20.95;48.64;102244.38;5025508;28;20046;-48
2021/05/31 00:22:52;;;;;;;5.75;4.22;;;;;;;20.94;49.28;102251.69;5025581;28;20049;-48
2021/05/31 00:25:18;;;;;;;7.88;4.45;;;;;;;20.95;48.96;102249.78;5024984;28;20473;-50
2021/05/31 00:27:43;;;;;;;7.57;4.63;;;;;;;20.93;48.74;102250.09;5024384;28;20037;-49
2021/05/31 00:30:10;;;;;;;8.02;4.68;;;;;;;20.93;48.66;102249.31;5025046;28;20053;-48
2021/05/31 00:32:36;;;;;;;11.05;5.03;;;;;;;20.92;48.70;102251.22;5024162;28;20045;-48
2021/05/31 00:35:02;;;;;;;9.00;5.05;;;;;;;20.92;49.18;102247.72;5025434;28;20042;-46
2021/05/31 00:37:28;;;;;;;7.45;4.78;;;;;;;20.91;48.98;102243.41;5040473;28;20064;-49
2021/05/31 00:39:53;;;;;;;4.50;4.10;;;;;;;20.90;49.02;102244.53;5024882;28;20037;-48
2021/05/31 00:42:18;;;;;;;6.80;5.05;;;;;;;20.87;48.89;102245.97;5024341;28;20419;-52
2021/05/31 00:44:44;;;;;;;10.77;4.93;;;;;;;20.88;48.98;102244.03;5025508;28;20056;-50
2021/05/31 00:47:09;;;;;;;11.25;5.22;;;;;;;20.86;49.15;102241.66;5024526;28;20067;-52
2021/05/31 00:49:38;;;;;;;10.45;4.97;;;;;;;20.86;49.03;102243.56;5007441;28;20684;-49
2021/05/31 00:52:07;;;;;;;7.28;5.07;;;;;;;20.87;49.29;102239.75;5023928;28;20049;-47
2021/05/31 00:54:32;;;;;;;5.70;5.00;;;;;;;20.85;49.13;102244.66;5015312;28;20045;-50
2021/05/31 00:56:58;;;;;;;7.88;4.95;;;;;;;20.85;49.26;102239.25;5024394;28;20561;-51
2021/05/31 00:59:23;;;;;;;5.35;4.80;;;;;;;20.83;49.21;102241.50;5025302;28;20120;-49
2021/05/31 01:01:49;;;;;;;9.23;4.97;;;;;;;20.82;49.26;102239.91;5024321;28;20082;-48
2021/05/31 01:04:14;;;;;;;7.95;4.80;;;;;;;20.83;49.40;102241.50;4988109;28;20048;-50
2021/05/31 01:06:43;;;;;;;5.65;4.72;;;;;;;20.81;48.99;102241.81;5005957;28;20057;-48
2021/05/31 01:09:17;;;;;;;8.30;5.22;;;;;;;20.80;49.18;102239.41;5024399;28;20079;-47
2021/05/31 01:11:48;;;;;;;;;;;;;;;20.78;49.38;102247.84;5025189;28;20504;-48
2021/05/31 01:15:05;;;;;;;11.18;5.47;;;;;;;20.78;49.28;102238.94;5005759;28;19917;-48
2021/05/31 01:17:45;;;;;;;12.80;5.47;;;;;;;20.77;49.50;102240.03;4966360;28;20077;-49
2021/05/31 01:20:42;;;;;;;7.57;5.20;;;;;;;20.76;49.42;102239.28;5023962;28;20458;-50
2021/05/31 01:23:09;;;;;;;7.10;5.28;;;;;;;20.74;49.34;102238.00;5024523;28;20136;-46
2021/05/31 01:25:47;;;;;;;6.40;4.82;;;;;;;20.71;49.46;102234.00;5006175;28;20076;-50
2021/05/31 01:28:12;;;;;;;7.47;4.93;;;;;;;20.72;49.45;102238.28;5022681;28;20045;-50
2021/05/31 01:30:42;;;;;;;8.67;5.20;;;;;;;20.72;49.39;102241.00;5024262;28;20388;-50
2021/05/31 01:33:11;;;;;;;6.00;5.13;;;;;;;20.72;49.48;102237.50;5019955;28;20053;-50
2021/05/31 01:35:36;;;;;;;10.32;5.75;;;;;;;20.71;49.46;102238.63;5006474;28;20057;-48
2021/05/31 01:38:02;;;;;;;14.05;5.72;;;;;;;20.66;49.60;102234.94;4987142;28;20052;-46
2021/05/31 01:40:27;;;;;;;5.90;5.20;;;;;;;20.65;49.39;102236.09;5005854;28;20128;-48
2021/05/31 01:42:53;;;;;;;8.82;5.90;;;;;;;20.63;49.63;102238.28;4989313;28;20033;-49
2021/05/31 01:45:21;;;;;;;9.68;6.32;;;;;;;20.63;49.89;102238.28;4990117;28;20556;-46
2021/05/31 01:47:47;;;;;;;12.18;5.25;;;;;;;20.63;49.67;102237.47;5006285;28;20065;-48
2021/05/31 01:50:12;;;;;;;7.07;5.30;;;;;;;20.62;49.74;102234.00;5005086;28;20053;-47
2021/05/31 01:52:38;;;;;;;7.63;5.35;;;;;;;20.62;49.83;102231.31;5037810;28;20702;-46
2021/05/31 01:55:04;;;;;;;7.97;5.70;;;;;;;20.61;49.70;102224.31;4999371;28;20494;-51
2021/05/31 01:57:29;;;;;;;6.80;5.32;;;;;;;20.60;49.74;102224.63;5004801;28;20038;-48
2021/05/31 01:59:55;;;;;;;7.18;5.80;;;;;;;20.59;50.00;102229.22;4999631;28;20045;-48
2021/05/31 02:02:20;;;;;;;6.25;5.43;;;;;;;20.57;49.23;102228.72;5002661;28;20056;-49
2021/05/31 02:04:45;;;;;;;11.02;5.63;;;;;;;20.56;50.42;102221.75;4985550;28;20046;-47
2021/05/31 02:07:11;;;;;;;8.65;5.97;;;;;;;20.56;49.84;102221.75;5019545;28;20041;-49
2021/05/31 02:09:36;;;;;;;6.32;5.65;;;;;;;20.55;49.87;102220.16;5022572;28;20643;-50
2021/05/31 02:12:07;;;;;;;10.23;5.78;;;;;;;20.53;50.06;102216.97;5005350;28;20041;-46
2021/05/31 02:15:00;;;;;;;7.50;5.60;;;;;;;20.53;49.85;102221.56;5024747;28;20522;-49
2021/05/31 02:17:31;;;;;;;8.50;6.25;;;;;;;20.53;49.67;102224.28;5016513;28;20052;-46
2021/05/31 02:20:02;;;;;;;9.02;6.35;;;;;;;20.51;49.87;102221.91;5022800;28;20045;-48
2021/05/31 02:22:27;;;;;;;7.45;6.43;;;;;;;20.50;49.80;102227.59;4998856;28;20056;-47
2021/05/31 02:24:54;;;;;;;10.48;6.25;;;;;;;20.49;49.88;102220.63;5004980;28;20049;-47
2021/05/31 02:27:19;;;;;;;10.50;6.22;;;;;;;20.50;49.93;102224.91;4988352;28;20069;-46
2021/05/31 02:29:45;;;;;;;12.00;5.97;;;;;;;20.49;49.24;102224.09;5002683;28;20128;-46
2021/05/31 02:32:10;;;;;;;7.78;6.60;;;;;;;20.48;49.63;102225.22;5018727;28;20029;-46
2021/05/31 02:34:35;;;;;;;12.40;6.65;;;;;;;20.48;50.03;102217.13;5021958;28;20414;-48
2021/05/31 02:37:01;;;;;;;7.78;6.55;;;;;;;20.47;50.03;102220.13;5005896;28;20038;-46
2021/05/31 02:39:26;;;;;;;8.65;6.03;;;;;;;20.46;49.98;102216.66;5020876;28;20091;-48
2021/05/31 02:41:52;;;;;;;8.02;6.43;;;;;;;20.45;49.92;102220.44;4999688;28;20102;-45
2021/05/31 02:44:17;;;;;;;8.43;6.82;;;;;;;20.43;49.94;102222.69;5020846;28;20208;-46
2021/05/31 02:46:42;;;;;;;9.15;6.80;;;;;;;20.43;49.94;102214.59;5022974;28;20034;-47
2021/05/31 02:49:08;;;;;;;8.93;6.95;;;;;;;20.43;50.05;102221.88;5023612;28;20042;-46
2021/05/31 02:51:34;;;;;;;14.23;6.43;;;;;;;20.40;50.13;102212.50;5021384;28;20045;-49
2021/05/31 02:54:00;;;;;;;9.02;6.95;;;;;;;20.43;50.23;102217.28;4983432;28;20046;-46
2021/05/31 02:56:25;;;;;;;11.95;7.32;;;;;;;20.44;50.03;102221.56;5021660;28;20050;-49
2021/05/31 02:58:50;;;;;;;12.18;7.45;;;;;;;20.42;50.31;102218.38;5015154;28;20033;-46
2021/05/31 03:01:16;;;;;;;8.32;7.13;;;;;;;20.41;50.26;102208.69;5023514;28;20040;-47
2021/05/31 03:03:41;;;;;;;9.23;7.43;;;;;;;20.41;50.22;102214.06;5013977;28;20041;-47
2021/05/31 03:06:07;;;;;;;10.35;7.55;;;;;;;20.42;50.15;102218.38;5020534;28;20647;-47
2021/05/31 03:08:32;;;;;;;10.93;8.05;;;;;;;20.41;50.24;102214.06;5022854;28;20041;-46
2021/05/31 03:10:57;;;;;;;13.05;7.90;;;;;;;20.38;50.24;102212.00;5021975;28;20048;-47
2021/05/31 03:13:23;;;;;;;10.35;7.72;;;;;;;20.39;50.13;102210.09;5021238;28;20033;-49
2021/05/31 03:15:49;;;;;;;12.73;7.78;;;;;;;20.38;50.49;102214.69;5007859;28;20148;-49
2021/05/31 03:18:15;;;;;;;11.63;7.60;;;;;;;20.43;51.11;102221.88;5025808;28;20046;-50
2021/05/31 03:20:40;;;;;;;14.80;8.02;;;;;;;20.44;50.74;102220.75;5024322;28;20107;-51
2021/05/31 03:23:06;;;;;;;10.80;8.18;;;;;;;20.39;50.92;102220.91;5026576;28;20767;-49
2021/05/31 03:25:31;;;;;;;18.75;8.25;;;;;;;20.36;50.71;102216.94;5024346;28;20055;-49
2021/05/31 03:27:58;;;;;;;15.43;8.95;;;;;;;20.35;50.56;102228.06;5026867;28;20068;-50
2021/05/31 03:30:23;;;;;;;18.30;9.43;;;;;;;20.36;50.65;102218.81;5026076;28;20042;-50
2021/05/31 03:32:49;;;;;;;10.48;8.85;;;;;;;20.34;50.64;102226.44;5026470;28;20048;-48
2021/05/31 03:35:14;;;;;;;11.80;8.98;;;;;;;20.33;50.63;102230.25;5026422;28;20075;-51
2021/05/31 03:37:40;;;;;;;12.27;9.07;;;;;;;20.30;50.64;102225.50;5024522;28;20057;-47
2021/05/31 03:40:07;;;;;;;11.70;9.10;;;;;;;20.28;50.60;102230.41;5025424;28;20495;-48
2021/05/31 03:42:33;;;;;;;10.23;9.07;;;;;;;20.29;50.54;102224.69;5026107;28;20076;-50
2021/05/31 03:44:58;;;;;;;14.00;9.98;;;;;;;20.29;50.45;102223.91;5026208;28;20087;-50
2021/05/31 03:47:24;;;;;;;10.20;9.27;;;;;;;20.28;50.27;102225.00;5026009;28;20048;-47
2021/05/31 03:49:49;;;;;;;11.10;9.27;;;;;;;20.25;50.49;102226.41;5025435;28;20056;-47
2021/05/31 03:52:14;;;;;;;10.70;9.57;;;;;;;20.25;50.52;102222.91;5044747;28;20045;-49
2021/05/31 03:54:40;;;;;;;12.18;9.25;;;;;;;20.23;50.54;102230.50;5044128;28;20047;-51
2021/05/31 03:57:05;;;;;;;13.93;9.40;;;;;;;20.22;50.41;102226.25;5042630;28;20403;-49
2021/05/31 03:59:31;;;;;;;13.82;9.63;;;;;;;20.21;49.82;102228.13;5043557;28;20080;-51
2021/05/31 04:01:56;;;;;;;12.35;10.00;;;;;;;20.20;50.56;102226.53;5045284;28;20051;-49
2021/05/31 04:04:22;;;;;;;14.82;9.48;;;;;;;20.19;50.53;102224.94;5026225;28;20056;-49
2021/05/31 04:11:57;;;;;;;11.88;9.25;;;;;;;20.15;50.63;102223.97;5041650;28;20297;-48
2021/05/31 04:14:22;;;;;;;11.25;9.80;;;;;;;20.14;50.62;102225.06;5026391;28;20037;-48
2021/05/31 04:16:50;;;;;;;12.27;10.80;;;;;;;20.13;50.53;102222.69;5040256;28;20049;-50
2021/05/31 04:19:17;;;;;;;15.60;9.98;;;;;;;20.15;50.55;102223.19;5040842;28;20050;-47
2021/05/31 04:21:44;;;;;;;12.55;9.88;;;;;;;20.11;50.59;102228.41;5041792;28;20037;-46
2021/05/31 04:24:10;;;;;;;11.30;10.13;;;;;;;20.12;50.84;102227.28;5039405;28;20518;-48
2021/05/31 04:26:35;;;;;;;11.43;10.23;;;;;;;20.12;50.68;102230.00;5040676;28;20045;-47
2021/05/31 04:29:02;;;;;;;11.60;10.40;;;;;;;20.09;50.63;102217.91;5023800;28;20037;-51
2021/05/31 04:31:27;;;;;;;11.75;10.05;;;;;;;20.10;50.65;102219.53;5040730;28;20507;-46
2021/05/31 04:33:53;;;;;;;14.75;11.15;;;;;;;20.09;50.86;102215.22;5042520;28;20032;-46
2021/05/31 04:36:18;;;;;;;13.13;11.02;;;;;;;20.13;50.92;102222.69;5039803;28;20049;-47
2021/05/31 04:38:43;;;;;;;10.73;9.70;;;;;;;20.11;51.05;102212.19;5040735;28;20116;-46
2021/05/31 04:41:09;;;;;;;12.05;9.90;;;;;;;20.08;51.03;102216.31;5042175;28;20045;-46
2021/05/31 04:43:34;;;;;;;21.83;11.32;;;;;;;20.09;51.08;102220.63;5040793;28;20049;-46
2021/05/31 04:46:00;;;;;;;15.15;10.73;;;;;;;20.09;51.15;102220.63;5041217;28;20117;-45
2021/05/31 04:48:25;;;;;;;13.13;10.43;;;;;;;20.10;51.05;102213.31;5040287;28;20045;-46
2021/05/31 04:50:56;;;;;;;14.38;10.82;;;;;;;20.09;51.05;102212.53;5007882;28;20072;-47
2021/05/31 04:53:25;;;;;;;19.35;10.93;;;;;;;20.08;50.99;102213.63;5000599;28;20029;-46
2021/05/31 04:55:52;;;;;;;14.80;11.77;;;;;;;20.06;50.92;102206.94;5001160;28;20037;-50
2021/05/31 04:58:17;;;;;;;17.98;10.90;;;;;;;20.07;51.06;102209.34;5000540;28;20528;-46
2021/05/31 05:00:43;;;;;;;13.35;11.38;;;;;;;20.06;51.04;102206.94;4999929;28;20051;-49
2021/05/31 05:03:08;;;;;;;14.25;11.05;;;;;;;20.07;51.13;102212.06;5000228;28;20034;-50
2021/05/31 05:05:33;;;;;;;12.98;11.60;;;;;;;20.07;51.03;102206.66;4999608;28;20050;-46
2021/05/31 05:07:59;;;;;;;15.82;11.05;;;;;;;20.06;51.00;102206.94;4999756;28;20272;-48
2021/05/31 05:10:24;;;;;;;12.23;10.50;;;;;;;20.05;50.98;102211.53;4999564;28;20038;-49
2021/05/31 05:12:51;;;;;;;12.55;11.23;;;;;;;20.03;50.53;102211.06;5001865;28;20694;-49
2021/05/31 05:15:17;;;;;;;14.48;11.32;;;;;;;20.03;51.03;102208.38;5013643;28;20696;-48
2021/05/31 05:17:43;;;;;;;12.60;11.23;;;;;;;20.04;50.87;102209.16;4991868;28;20036;-50
2021/05/31 05:20:09;;;;;;;27.02;11.35;;;;;;;20.10;50.94;102208.72;4996520;28;20058;-50
2021/05/31 05:22:34;;;;;;;14.38;10.55;;;;;;;20.10;50.85;102213.31;4999022;28;20482;-46
2021/05/31 05:24:59;;;;;;;19.25;11.65;;;;;;;20.11;53.18;102207.59;5015106;28;20640;-50
2021/05/31 05:27:25;;;;;;;21.77;12.40;;;;;;;20.13;53.97;102206.50;5019011;28;20038;-51
2021/05/31 05:29:50;;;;;;;20.25;12.00;;;;;;;20.14;54.46;102203.47;5001901;28;20281;-50
2021/05/31 05:32:16;;;;;;;19.50;11.27;;;;;;;20.18;55.41;102207.16;5010903;28;20033;-50
2021/05/31 05:34:41;;;;;;;13.40;11.93;;;;;;;20.14;55.59;102202.72;4999299;28;20050;-47
2021/05/31 05:37:10;;;;;;;15.40;11.23;;;;;;;20.10;53.82;102195.25;5007765;28;20042;-48
2021/05/31 05:39:59;;;;;;;18.35;11.40;;;;;;;20.10;53.23;102195.25;5009347;28;20415;-50
2021/05/31 05:42:37;;;;;;;13.27;10.35;;;;;;;20.11;52.91;102206.81;5005135;28;20049;-50
2021/05/31 05:47:47;;;;;;;14.23;10.75;;;;;;;20.09;52.50;102196.34;5019133;28;20045;-49
2021/05/31 05:50:17;;;;;;;20.02;10.63;;;;;;;20.10;52.50;102200.63;5023219;28;20049;-47
2021/05/31 05:52:43;;;;;;;17.45;9.95;;;;;;;20.12;52.56;102200.31;5025263;28;20098;-48
2021/05/31 05:55:08;;;;;;;20.27;10.73;;;;;;;19.95;52.26;102195.63;5034963;28;20045;-53
2021/05/31 05:57:34;;;;;;;15.85;11.80;;;;;;;19.70;53.04;102198.22;5041803;28;20052;-51
2021/05/31 06:00:03;;;;;;;17.42;11.65;;;;;;;19.73;53.28;102198.38;5012559;28;20470;-59
2021/05/31 06:02:29;;;;;;;24.88;11.40;;;;;;;19.71;54.08;102195.22;5018272;28;20125;-59
2021/05/31 06:04:54;;;;;;;19.00;11.48;;;;;;;19.76;53.36;102200.47;5011999;28;20053;-59
2021/05/31 06:07:19;;;;;;;18.77;12.32;;;;;;;19.74;53.22;102200.00;4992298;28;20046;-59
2021/05/31 06:09:45;;;;;;;16.83;11.32;;;;;;;19.72;52.96;102199.50;5002213;28;20546;-59
2021/05/31 06:12:10;;;;;;;24.95;12.07;;;;;;;19.71;53.06;102191.72;5001069;28;20057;-59
2021/05/31 06:14:36;;;;;;;20.00;11.10;;;;;;;19.72;53.00;102196.00;4976272;28;20041;-59
2021/05/31 06:17:01;;;;;;;21.92;11.95;;;;;;;19.72;55.40;102187.91;4997808;28;20054;-59
2021/05/31 06:19:28;;;;;;;17.80;11.98;;;;;;;19.86;55.35;102194.03;5008468;28;20050;-59
2021/05/31 06:21:54;;;;;;;20.90;12.02;;;;;;;19.89;58.43;102193.41;5008223;28;20129;-59
2021/05/31 06:24:19;;;;;;;19.15;11.32;;;;;;;19.91;55.25;102191.97;5006366;28;20418;-59
2021/05/31 06:26:44;;;;;;;17.75;11.40;;;;;;;19.81;54.42;102192.22;5020164;28;20037;-59
2021/05/31 06:29:10;;;;;;;15.25;10.43;;;;;;;19.60;53.71;102185.78;5020873;28;20048;-60
2021/05/31 06:31:35;;;;;;;16.45;10.70;;;;;;;19.48;53.90;102194.44;5022498;28;20099;-59
2021/05/31 06:34:00;;;;;;;11.48;10.05;;;;;;;19.41;53.84;102191.38;5022879;28;20037;-59
2021/05/31 06:36:26;;;;;;;18.58;9.75;;;;;;;19.44;54.14;102193.47;5003996;28;20267;-59
2021/05/31 06:38:52;;;;;;;15.55;10.02;;;;;;;19.52;53.92;102190.03;5020052;28;20049;-59
2021/05/31 06:41:17;;;;;;;12.60;9.32;;;;;;;19.45;54.21;102188.88;5022538;28;20041;-59
2021/05/31 06:43:42;;;;;;;13.77;8.85;;;;;;;19.51;55.63;102184.94;5021813;28;20038;-59
2021/05/31 06:46:08;;;;;;;15.95;10.13;;;;;;;19.59;55.44;102186.88;5022221;28;20043;-59
2021/05/31 06:48:33;;;;;;;18.30;9.77;;;;;;;19.59;54.85;102186.88;5003132;28;20042;-59
2021/05/31 06:50:59;;;;;;;12.10;8.77;;;;;;;19.59;54.60;102178.03;5006539;28;20042;-59
2021/05/31 06:53:25;;;;;;;11.65;9.07;;;;;;;19.46;54.80;102188.56;4999677;28;20044;-59
2021/05/31 06:55:50;;;;;;;11.05;9.02;;;;;;;19.44;54.60;102190.78;4999794;28;20041;-58
2021/05/31 06:58:16;;;;;;;14.75;9.13;;;;;;;19.45;54.56;102178.09;4993226;28;20033;-58
2021/05/31 07:00:42;;;;;;;13.85;8.52;;;;;;;19.53;54.26;102191.59;4982868;28;20046;-60
2021/05/31 07:03:08;;;;;;;13.40;8.98;;;;;;;19.55;54.57;102177.84;5007141;28;20049;-52
2021/05/31 07:05:33;;;;;;;19.17;9.15;;;;;;;19.65;54.36;102180.25;4988852;28;20536;-52
2021/05/31 07:07:59;;;;;;;14.20;9.00;;;;;;;19.71;54.73;102183.63;5010718;28;20044;-53
2021/05/31 07:10:27;;;;;;;12.85;9.32;;;;;;;19.77;55.22;102180.50;5007789;28;20427;-46
2021/05/31 07:12:52;;;;;;;13.82;8.80;;;;;;;19.77;54.08;102177.00;4987817;28;20042;-46
2021/05/31 07:15:19;;;;;;;16.13;9.05;;;;;;;19.75;54.40;102179.22;5014795;28;20048;-45
2021/05/31 07:17:45;;;;;;;10.57;7.63;;;;;;;19.72;55.12;102171.75;5016471;28;20456;-48
2021/05/31 07:20:11;;;;;;;11.85;8.70;;;;;;;19.78;55.07;102179.38;4993925;28;20545;-49
2021/05/31 07:22:37;;;;;;;10.02;7.85;;;;;;;19.77;55.37;102168.91;5002719;28;20133;-52
2021/05/31 07:25:04;;;;;;;12.82;8.40;;;;;;;19.89;55.26;102169.91;5009053;28;20072;-47
2021/05/31 07:27:29;;;;;;;20.42;8.90;;;;;;;19.90;55.28;102170.69;5021429;28;20124;-50
2021/05/31 07:29:54;;;;;;;15.43;9.57;;;;;;;19.88;55.17;102171.03;5004113;28;20164;-49
2021/05/31 07:32:20;;;;;;;15.48;9.40;;;;;;;20.02;54.55;102166.31;5003590;28;20045;-50
2021/05/31 07:34:45;;;;;;;14.38;8.50;;;;;;;19.99;54.43;102164.25;4984376;28;20052;-50
2021/05/31 07:37:11;;;;;;;14.18;8.95;;;;;;;20.15;54.66;102163.81;5015904;28;20041;-50
2021/05/31 07:39:36;;;;;;;13.82;8.88;;;;;;;20.29;54.22;102164.50;4984768;28;20129;-56
2021/05/31 07:42:02;;;;;;;16.95;8.48;;;;;;;20.40;54.14;102157.69;5003082;28;20145;-56
2021/05/31 07:44:27;;;;;;;11.07;7.43;;;;;;;20.43;54.24;102155.19;5018533;28;20414;-62
2021/05/31 07:46:52;;;;;;;10.30;7.63;;;;;;;20.49;53.14;102159.28;4985966;28;20065;-57
2021/05/31 07:49:18;;;;;;;15.90;8.02;;;;;;;20.56;53.87;102154.22;5018226;28;20047;-57
2021/05/31 07:51:45;;;;;;;20.10;7.32;;;;;;;20.57;53.47;102152.34;5017903;28;20050;-55
2021/05/31 07:54:11;;;;;;;18.17;8.75;;;;;;;20.62;53.45;102155.66;5009634;28;20494;-55
2021/05/31 07:56:36;;;;;;;14.18;8.00;;;;;;;20.65;53.84;102146.94;5013937;28;20061;-52
2021/05/31 07:59:01;;;;;;;13.65;7.30;;;;;;;20.64;51.44;102153.44;5013963;28;20699;-54
2021/05/31 08:01:27;;;;;;;13.63;6.85;;;;;;;20.75;51.19;102155.81;5012667;28;20046;-56
2021/05/31 08:03:52;;;;;;;9.40;5.60;;;;;;;20.79;50.78;102152.19;5008082;28;20041;-54
2021/05/31 08:06:17;;;;;;;10.10;6.28;;;;;;;20.79;52.30;102146.78;5008551;28;20041;-52
2021/05/31 08:08:43;;;;;;;11.48;6.45;;;;;;;20.80;52.04;102152.97;5006313;28;20060;-50
2021/05/31 08:11:09;;;;;;;9.30;4.70;;;;;;;20.77;46.74;102150.88;5005058;28;20038;-47
2021/05/31 08:13:35;;;;;;;9.27;4.90;;;;;;;20.89;46.97;102149.16;5015955;28;20041;-52
2021/05/31 08:16:00;;;;;;;8.25;5.35;;;;;;;20.93;49.21;102152.03;5018880;28;20045;-52
2021/05/31 08:18:26;;;;;;;7.10;4.40;;;;;;;20.93;47.64;102152.78;5009364;28;20507;-49
2021/05/31 08:20:51;;;;;;;7.63;4.80;;;;;;;20.97;47.03;102148.34;5025325;28;20041;-57
2021/05/31 08:23:16;;;;;;;6.78;5.28;;;;;;;20.94;49.48;102146.28;5019494;28;20088;-49
2021/05/31 08:25:45;;;;;;;7.35;5.18;;;;;;;21.06;49.33;102145.66;5015430;28;20030;-45
2021/05/31 08:28:10;;;;;;;7.47;5.20;;;;;;;21.01;49.92;102146.59;5011290;28;20049;-51
2021/05/31 08:30:36;;;;;;;13.68;4.93;;;;;;;21.03;49.66;102149.78;5005597;28;20038;-50
2021/05/31 08:33:04;;;;;;;6.00;4.43;;;;;;;21.15;49.47;102143.72;5005257;28;20349;-52
2021/05/31 08:35:29;;;;;;;7.18;4.35;;;;;;;21.18;46.78;102143.91;5021688;28;20399;-48
2021/05/31 08:37:54;;;;;;;8.55;4.55;;;;;;;21.31;46.88;102144.84;5018946;28;20515;-56
2021/05/31 08:40:20;;;;;;;8.40;4.65;;;;;;;21.37;47.44;102146.25;5006239;28;20519;-49
2021/05/31 08:42:46;;;;;;;7.35;4.97;;;;;;;20.90;49.37;102148.03;5024975;28;20562;-58
2021/05/31 08:45:16;;;;;;;8.48;5.05;;;;;;;20.91;49.33;102149.63;5023136;28;20041;-59
2021/05/31 08:47:43;;;;;;;8.82;5.22;;;;;;;20.78;49.31;102149.78;5014477;28;20053;-59
2021/05/31 08:50:09;;;;;;;6.50;4.63;;;;;;;20.95;48.48;102134.38;5012110;28;20052;-58
2021/05/31 08:52:35;;;;;;;6.18;4.75;;;;;;;20.98;48.78;102139.16;5003887;28;20037;-60
2021/05/31 08:55:00;;;;;;;5.38;4.55;;;;;;;21.01;47.21;102130.38;5006282;28;20121;-60
2021/05/31 08:57:26;;;;;;;10.93;4.88;;;;;;;20.85;49.15;102129.28;5003046;28;20046;-60
2021/05/31 08:59:52;;;;;;;6.18;4.68;;;;;;;21.05;47.40;102135.94;5015071;28;20652;-60
2021/05/31 09:02:17;;;;;;;7.68;4.30;;;;;;;21.22;46.20;102125.13;5016273;28;20037;-60
2021/05/31 09:04:46;;;;;;;5.28;3.80;;;;;;;21.20;44.42;102116.56;5028103;28;20048;-60
2021/05/31 09:07:12;;;;;;;6.55;4.60;;;;;;;21.11;47.16;102119.28;5008786;28;20040;-59
2021/05/31 09:09:41;;;;;;;6.95;4.47;;;;;;;21.05;48.28;102117.81;5014802;28;20034;-51
2021/05/31 09:12:08;;;;;;;5.28;3.95;;;;;;;20.99;48.04;102116.38;4998461;28;20034;-54
2021/05/31 09:14:34;;;;;;;7.10;4.25;;;;;;;21.04;47.71;102107.31;4984160;28;20057;-55
2021/05/31 09:16:59;;;;;;;6.85;4.30;;;;;;;21.06;47.77;102107.81;4969686;28;20088;-55
2021/05/31 09:19:24;;;;;;;5.50;4.53;;;;;;;21.18;47.93;102111.47;5004895;28;20765;-53
2021/05/31 09:21:50;;;;;;;6.53;4.60;;;;;;;21.24;47.95;102102.06;5009244;28;20041;-54
2021/05/31 09:24:22;;;;;;;7.40;4.70;;;;;;;21.48;46.75;102104.19;5003672;28;20044;-56
2021/05/31 09:26:59;;;;;;;5.35;4.10;;;;;;;21.46;45.87;102106.44;5004564;28;20125;-54
2021/05/31 09:29:25;;;;;;;5.38;4.45;;;;;;;21.51;46.89;102098.16;4997807;28;20034;-54
2021/05/31 09:32:03;;;;;;;4.82;4.32;;;;;;;21.65;46.32;102100.63;4986830;28;20793;-52
2021/05/31 09:34:29;;;;;;;5.50;4.40;;;;;;;21.74;46.76;102104.91;5008175;28;20046;-50
2021/05/31 09:36:56;;;;;;;5.43;4.45;;;;;;;21.62;47.19;102098.56;5002658;28;20048;-57
2021/05/31 09:39:35;;;;;;;6.25;4.50;;;;;;;21.73;46.86;102102.50;4976677;28;20096;-55
2021/05/31 09:42:14;;;;;;;5.18;4.38;;;;;;;21.71;46.62;102093.94;5000535;28;20139;-57
2021/05/31 09:44:44;;;;;;;6.30;4.70;;;;;;;21.68;46.79;102100.78;5023659;28;20042;-59
2021/05/31 09:47:10;;;;;;;9.88;4.72;;;;;;;21.73;46.64;102097.09;5002822;28;20045;-59
2021/05/31 09:49:36;;;;;;;5.22;4.72;;;;;;;21.65;46.97;102093.31;5023936;28;20681;-53
2021/05/31 09:52:04;;;;;;;8.90;4.95;;;;;;;21.71;46.68;102096.63;5003793;28;20415;-51
2021/05/31 09:54:33;;;;;;;8.60;5.00;;;;;;;21.86;46.31;102087.94;5021710;28;20080;-48
2021/05/31 09:56:59;;;;;;;6.32;5.20;;;;;;;22.00;45.92;102093.16;5023328;28;20041;-46
2021/05/31 09:59:28;;;;;;;6.78;4.75;;;;;;;22.02;46.36;102093.66;5022725;28;20946;-54
2021/05/31 10:02:00;;;;;;;10.75;5.68;;;;;;;22.07;46.82;102088.03;5005200;28;20565;-49
2021/05/31 10:04:53;;;;;;;10.70;5.50;;;;;;;22.02;46.83;102093.66;5019278;28;20700;-50
2021/05/31 10:09:48;;;;;;;7.95;4.93;;;;;;;22.17;46.97;102082.22;5004238;28;20704;-56
2021/05/31 10:12:13;;;;;;;8.20;4.82;;;;;;;22.21;46.67;102081.22;5022385;28;20511;-60
2021/05/31 10:14:40;;;;;;;5.93;4.55;;;;;;;22.18;46.56;102086.53;5004686;28;20108;-61
2021/05/31 10:17:05;;;;;;;8.10;4.65;;;;;;;22.18;46.62;102075.69;5004344;28;20518;-56
2021/05/31 10:19:31;;;;;;;5.85;4.15;;;;;;;22.22;46.69;102082.03;5003874;28;20041;-59
2021/05/31 10:21:56;;;;;;;8.48;4.55;;;;;;;22.26;46.69;102070.22;5005558;28;20053;-58
2021/05/31 10:24:22;;;;;;;6.93;4.53;;;;;;;22.27;47.06;102071.00;5021345;28;20049;-60
2021/05/31 10:26:47;;;;;;;8.13;4.82;;;;;;;22.24;47.11;102068.97;5022726;28;20384;-60
2021/05/31 10:29:13;;;;;;;5.18;4.50;;;;;;;22.24;47.20;102067.03;5004806;28;20033;-60
2021/05/31 10:31:45;;;;;;;9.18;4.80;;;;;;;22.40;46.93;102075.38;5004692;28;20045;-61
2021/05/31 10:34:20;;;;;;;8.48;4.70;;;;;;;22.34;46.83;102074.78;5021929;28;20033;-61
2021/05/31 10:36:49;;;;;;;8.43;5.00;;;;;;;22.45;46.48;102064.34;5005552;28;20041;-61
2021/05/31 10:39:21;;;;;;;7.97;4.60;;;;;;;22.47;46.36;102067.50;5002593;28;20037;-60
2021/05/31 10:41:46;;;;;;;6.60;4.70;;;;;;;22.76;45.25;102056.56;5022116;28;20056;-61
2021/05/31 10:44:16;;;;;;;8.45;5.20;;;;;;;22.84;45.01;102058.41;4984193;28;20571;-60
2021/05/31 10:46:42;;;;;;;5.63;5.13;;;;;;;22.98;45.15;102050.75;4998515;28;20375;-60
2021/05/31 10:49:07;;;;;;;5.70;5.07;;;;;;;22.78;45.35;102058.97;4965240;28;20038;-60
2021/05/31 10:51:37;;;;;;;6.85;4.50;;;;;;;22.83;45.45;102061.47;5003440;28;20109;-60
2021/05/31 10:54:23;;;;;;;7.93;5.88;;;;;;;23.11;44.29;102045.38;5015802;28;20045;-60
2021/05/31 10:56:49;;;;;;;6.45;5.25;;;;;;;22.97;44.80;102056.53;4970250;28;20046;-61
2021/05/31 10:59:19;;;;;;;7.43;5.70;;;;;;;22.99;44.74;102052.34;4978385;28;20048;-60
2021/05/31 11:01:44;;;;;;;10.07;5.60;;;;;;;23.02;44.77;102054.41;5015966;28;20107;-61
2021/05/31 11:04:19;;;;;;;6.95;5.63;;;;;;;22.96;45.29;102054.94;5020166;28;20075;-61
2021/05/31 11:06:45;;;;;;;6.45;5.20;;;;;;;22.94;45.42;102055.28;5023091;28;20049;-61
2021/05/31 11:09:15;;;;;;;5.70;5.10;;;;;;;22.91;45.30;102047.81;4983756;28;20088;-60
2021/05/31 11:11:48;;;;;;;6.07;5.38;;;;;;;22.77;46.06;102052.75;5002372;28;20038;-62
2021/05/31 11:14:38;;;;;;;7.15;5.18;;;;;;;22.65;46.08;102052.69;4996630;28;20034;-61
2021/05/31 11:17:08;;;;;;;6.95;5.47;;;;;;;22.84;45.11;102039.44;4973067;28;20061;-60
2021/05/31 11:19:35;;;;;;;6.10;5.50;;;;;;;23.13;44.82;102030.34;5015630;28;20041;-60
2021/05/31 11:22:14;;;;;;;6.82;5.63;;;;;;;23.18;45.55;102035.56;4994144;28;20042;-48
2021/05/31 11:24:40;;;;;;;6.72;5.30;;;;;;;23.26;44.08;102033.84;5005895;28;20042;-54
2021/05/31 11:27:08;;;;;;;6.93;5.00;;;;;;;23.29;44.44;102041.31;4995344;28;20526;-58
2021/05/31 11:29:34;;;;;;;5.68;5.20;;;;;;;23.20;45.04;102027.06;4986559;28;20120;-57